Time;durP1;ratioP1;P1;durP2;ratioP2;P2;SDS_P1;SDS_P2;PMS_P1;PMS_P2;Temp;Humidity;BMP_temperature;BMP_pressure;BME280_temperature;BME280_humidity;BME280_pressure;Samples;Min_cycle;Max_cycle;Signal;HPM_P1;HPM_P2
2024/01/11 00:03:44;;;;;;;43.37;30.13;;;-2.70;99.90;;;;;;6226530;23;20469;-78
2024/01/11 00:06:34;;;;;;;40.77;29.67;;;-2.70;99.90;;;;;;6223570;23;20402;-78
2024/01/11 00:09:25;;;;;;;;;;;;;;;;;;;;;
2024/01/11 00:12:37;;;;;;;49.53;32.60;;;-2.50;99.90;;;;;;6233767;23;20410;-76
2024/01/11 00:15:47;;;;;;;40.73;30.67;;;-2.80;99.90;;;;;;6229816;23;20386;-76
2024/01/11 00:25:12;;;;;;;45.17;29.53;;;-2.90;99.90;;;;;;6223887;23;20407;-79
2024/01/11 00:34:09;;;;;;;43.27;30.60;;;-2.80;99.90;;;;;;6218486;23;20437;-78
2024/01/11 00:37:06;;;;;;;46.63;31.60;;;-2.90;99.90;;;;;;6212747;23;20442;-78
2024/01/11 00:40:14;;;;;;;44.63;29.53;;;-2.80;99.90;;;;;;6218808;23;20379;-77
2024/01/11 00:43:25;;;;;;;44.17;29.73;;;-2.90;99.90;;;;;;6213352;23;20430;-77
2024/01/11 00:46:30;;;;;;;41.93;29.63;;;-2.90;99.90;;;;;;6216904;23;20421;-77
2024/01/11 00:49:53;;;;;;;;;;;;;;;;;;;;;
2024/01/11 00:53:02;;;;;;;42.50;28.90;;;-3.30;99.90;;;;;;6217709;23;20422;-78
2024/01/11 00:59:10;;;;;;;40.97;28.53;;;-3.00;99.90;;;;;;6214616;23;20927;-76
2024/01/11 01:02:07;;;;;;;;;;;;;;;;;;;;;
2024/01/11 01:05:04;;;;;;;45.13;32.00;;;-3.00;99.90;;;;;;6219035;23;20397;-77
2024/01/11 01:07:42;;;;;;;42.50;30.17;;;-3.00;99.90;;;;;;6220463;23;20489;-76
2024/01/11 01:10:40;;;;;;;47.60;31.83;;;-3.10;99.90;;;;;;6221529;23;20478;-78
2024/01/11 01:13:22;;;;;;;44.03;30.10;;;-3.40;99.90;;;;;;6219845;23;20437;-78
2024/01/11 01:16:08;;;;;;;41.80;29.97;;;-3.10;99.90;;;;;;6220652;23;20459;-75
2024/01/11 01:18:51;;;;;;;44.67;29.90;;;-3.10;99.90;;;;;;6224825;23;20975;-79
2024/01/11 01:21:35;;;;;;;47.00;31.90;;;-3.10;99.90;;;;;;6232030;23;20430;-77
2024/01/11 01:24:22;;;;;;;48.70;30.90;;;-3.10;99.90;;;;;;6231082;23;20422;-78
2024/01/11 01:26:58;;;;;;;40.90;30.23;;;-3.10;99.90;;;;;;6232467;23;20399;-79
2024/01/11 01:29:47;;;;;;;41.90;30.87;;;-3.10;99.90;;;;;;6234164;23;20402;-78
2024/01/11 01:32:32;;;;;;;49.10;31.53;;;-3.50;99.90;;;;;;6229475;23;20813;-78
2024/01/11 01:35:27;;;;;;;43.37;29.40;;;-3.20;99.90;;;;;;6226908;23;20433;-76
2024/01/11 01:38:17;;;;;;;49.97;32.03;;;-3.20;99.90;;;;;;6225961;23;20505;-78
2024/01/11 01:41:07;;;;;;;48.70;31.23;;;-3.50;99.90;;;;;;6224831;23;20410;-75
2024/01/11 01:44:02;;;;;;;53.73;32.47;;;-3.30;99.90;;;;;;6222319;23;20414;-77
2024/01/11 01:47:05;;;;;;;46.47;30.83;;;-3.60;99.90;;;;;;6222328;23;20426;-76
2024/01/11 01:49:38;;;;;;;42.90;28.20;;;-3.20;99.90;;;;;;6220720;23;20402;-80
2024/01/11 01:52:24;;;;;;;43.23;30.03;;;-3.30;99.90;;;;;;6220056;23;20533;-78
2024/01/11 01:58:26;;;;;;;44.97;31.60;;;-3.40;99.90;;;;;;6199348;23;20473;-79
2024/01/11 02:01:17;;;;;;;44.10;32.10;;;-3.40;99.90;;;;;;6226712;23;20434;-77
2024/01/11 02:04:23;;;;;;;41.93;30.97;;;-3.40;99.90;;;;;;6229222;23;20791;-77
2024/01/11 02:07:03;;;;;;;52.30;32.60;;;-3.40;99.90;;;;;;6227476;23;20410;-78
2024/01/11 02:09:59;;;;;;;;;;;;;;;;;;;;;
2024/01/11 02:12:42;;;;;;;52.17;31.77;;;-3.40;99.90;;;;;;6227385;23;20407;-78
2024/01/11 02:15:28;;;;;;;46.83;31.20;;;-3.50;99.90;;;;;;6227856;23;20467;-78
2024/01/11 02:18:21;;;;;;;46.23;31.80;;;-3.50;99.90;;;;;;6228589;23;20433;-77
2024/01/11 02:24:08;;;;;;;47.83;32.53;;;-3.50;99.90;;;;;;6225723;23;20407;-78
2024/01/11 02:27:10;;;;;;;51.37;32.33;;;-3.50;99.90;;;;;;6221962;23;20411;-78
2024/01/11 02:30:13;;;;;;;45.83;30.90;;;-3.80;99.90;;;;;;6227202;23;20440;-78
2024/01/11 02:33:05;;;;;;;50.07;31.53;;;-3.60;99.90;;;;;;6149145;23;20429;-76
2024/01/11 02:35:50;;;;;;;44.83;32.90;;;-3.70;99.90;;;;;;6226899;23;20449;-77
2024/01/11 02:38:37;;;;;;;48.73;34.00;;;-3.70;99.90;;;;;;6224180;23;20961;-78
2024/01/11 02:41:19;;;;;;;45.93;30.60;;;-3.60;99.90;;;;;;6222569;23;20421;-77
2024/01/11 02:44:22;;;;;;;47.40;33.50;;;-3.40;99.90;;;;;;6221757;23;20831;-76
2024/01/11 02:47:45;;;;;;;45.57;31.30;;;-3.70;99.90;;;;;;6219718;23;20410;-78
2024/01/11 02:50:28;;;;;;;48.40;31.57;;;-4.00;99.90;;;;;;6221245;23;20478;-79
2024/01/11 02:56:21;;;;;;;47.60;32.30;;;-3.60;99.90;;;;;;6161440;23;20776;-79
2024/01/11 02:59:28;;;;;;;49.33;32.67;;;-3.60;99.90;;;;;;6222724;23;20413;-77
2024/01/11 03:02:16;;;;;;;47.73;33.10;;;-3.70;99.90;;;;;;6199292;23;20458;-77
2024/01/11 03:05:01;;;;;;;50.17;33.43;;;-3.70;99.90;;;;;;6223707;23;20429;-77
2024/01/11 03:07:52;;;;;;;42.97;31.20;;;-3.70;99.90;;;;;;6225061;23;20871;-77
2024/01/11 03:13:13;;;;;;;45.60;33.37;;;-3.70;99.90;;;;;;6221857;23;20410;-76
2024/01/11 03:15:51;;;;;;;45.33;32.20;;;-3.70;99.90;;;;;;6218679;23;20406;-78
2024/01/11 03:18:31;;;;;;;45.73;32.57;;;-3.80;99.90;;;;;;6217847;23;20441;-78
2024/01/11 03:21:16;;;;;;;50.83;33.10;;;-3.80;99.90;;;;;;6222988;23;20406;-77
2024/01/11 03:24:01;;;;;;;49.83;34.50;;;-3.80;99.90;;;;;;6229811;23;20732;-77
2024/01/11 03:26:50;;;;;;;43.17;30.60;;;-4.10;99.90;;;;;;6232109;23;20393;-77
2024/01/11 03:29:51;;;;;;;48.63;33.53;;;-3.80;99.90;;;;;;6233687;23;21052;-77
2024/01/11 03:32:49;;;;;;;43.57;31.20;;;-3.80;99.90;;;;;;6233572;23;20432;-76
2024/01/11 03:35:32;;;;;;;56.83;34.23;;;-3.80;99.90;;;;;;6227920;23;20446;-77
2024/01/11 03:38:15;;;;;;;46.43;32.50;;;-3.80;99.90;;;;;;6219313;23;20450;-76
2024/01/11 03:40:57;;;;;;;47.53;33.17;;;-3.80;99.90;;;;;;6216563;23;20755;-80
2024/01/11 03:43:31;;;;;;;47.20;33.53;;;-3.90;99.90;;;;;;6215540;23;20412;-77
2024/01/11 03:46:06;;;;;;;50.10;35.97;;;-3.90;99.90;;;;;;6216973;23;20707;-78
2024/01/11 03:48:39;;;;;;;51.20;32.87;;;-3.90;99.90;;;;;;6217585;23;20409;-78
2024/01/11 03:51:17;;;;;;;48.63;32.47;;;-3.90;99.90;;;;;;6217480;23;20431;-78
2024/01/11 03:53:54;;;;;;;52.47;34.10;;;-3.70;99.90;;;;;;6217105;23;20416;-79
2024/01/11 03:56:38;;;;;;;49.10;34.13;;;-4.10;99.90;;;;;;6217653;23;20417;-78
2024/01/11 03:59:17;;;;;;;48.97;31.83;;;-3.80;99.90;;;;;;6218256;23;20402;-80
2024/01/11 04:02:19;;;;;;;45.00;31.10;;;-3.90;99.90;;;;;;6217880;23;20515;-78
2024/01/11 04:04:57;;;;;;;46.07;31.60;;;-4.20;99.90;;;;;;6217042;23;20947;-79
2024/01/11 04:08:04;;;;;;;46.53;32.17;;;-3.90;99.90;;;;;;6217250;23;20410;-79
2024/01/11 04:10:50;;;;;;;48.87;32.67;;;-3.90;99.90;;;;;;6218204;23;20414;-78
2024/01/11 04:13:40;;;;;;;;;;;;;;;;;;;;;
2024/01/11 04:16:23;;;;;;;49.57;33.63;;;-4.00;99.90;;;;;;6220380;23;20980;-78
2024/01/11 04:19:04;;;;;;;51.27;32.77;;;-4.00;99.90;;;;;;6218800;23;20430;-79
2024/01/11 04:21:50;;;;;;;52.17;34.03;;;-4.00;99.90;;;;;;6219417;23;20436;-78
2024/01/11 04:24:38;;;;;;;46.67;31.37;;;-4.00;99.90;;;;;;6217587;23;20418;-77
2024/01/11 04:27:22;;;;;;;48.27;31.23;;;-4.00;99.90;;;;;;6221001;23;20476;-77
2024/01/11 04:30:05;;;;;;;48.53;31.77;;;-4.00;99.90;;;;;;6226410;23;20411;-78
2024/01/11 04:32:50;;;;;;;48.83;32.70;;;-4.30;99.90;;;;;;6229341;23;20440;-78
2024/01/11 04:35:58;;;;;;;49.07;32.87;;;-4.00;99.90;;;;;;6229798;23;20383;-77
2024/01/11 04:38:58;;;;;;;51.43;33.80;;;-4.00;99.90;;;;;;6231226;23;20441;-77
2024/01/11 04:41:37;;;;;;;45.43;32.87;;;-4.00;99.90;;;;;;6231593;23;20460;-78
2024/01/11 04:44:19;;;;;;;43.37;32.07;;;-4.00;99.90;;;;;;6224516;23;20464;-79
2024/01/11 04:47:02;;;;;;;52.50;33.17;;;-4.10;99.90;;;;;;6227326;23;20394;-80
2024/01/11 04:49:49;;;;;;;56.63;35.33;;;-4.10;99.90;;;;;;6227434;23;20414;-77
2024/01/11 04:52:45;;;;;;;48.00;33.83;;;-4.10;99.90;;;;;;6227635;23;20783;-78
2024/01/11 04:55:36;;;;;;;51.03;33.17;;;-4.10;99.90;;;;;;6229815;23;20444;-79
2024/01/11 04:58:27;;;;;;;49.33;32.67;;;-4.20;99.90;;;;;;6230035;23;20465;-77
2024/01/11 05:01:21;;;;;;;54.27;32.90;;;-4.10;99.90;;;;;;6220337;23;20713;-78
2024/01/11 05:04:07;;;;;;;46.90;34.67;;;-4.10;99.90;;;;;;6228582;23;20548;-78
2024/01/11 05:07:02;;;;;;;54.27;34.83;;;-4.10;99.90;;;;;;6225403;23;20401;-77
2024/01/11 05:09:54;;;;;;;51.90;33.70;;;-4.20;99.90;;;;;;6226992;23;20794;-78
2024/01/11 05:12:36;;;;;;;51.83;34.23;;;-4.40;99.90;;;;;;6226081;23;20444;-77
2024/01/11 05:15:15;;;;;;;47.87;33.30;;;-4.40;99.90;;;;;;6225048;23;20489;-80
2024/01/11 05:18:35;;;;;;;54.70;33.87;;;-4.40;99.90;;;;;;6223963;23;20447;-79
2024/01/11 05:21:19;;;;;;;47.37;31.97;;;-4.70;99.90;;;;;;6210425;23;20439;-78
2024/01/11 05:24:12;;;;;;;46.70;31.30;;;-4.30;99.90;;;;;;6223215;23;20426;-79
2024/01/11 05:29:49;;;;;;;50.10;33.10;;;-4.30;99.90;;;;;;6221469;23;20406;-78
2024/01/11 05:32:35;;;;;;;48.00;32.60;;;-4.20;99.90;;;;;;6221466;23;20499;-79
2024/01/11 05:35:31;;;;;;;;;;;;;;;;;;;;;
2024/01/11 05:38:14;;;;;;;45.20;32.90;;;-4.10;99.90;;;;;;6223532;23;20989;-77
2024/01/11 05:41:01;;;;;;;50.03;33.07;;;-4.40;99.90;;;;;;6226223;23;20418;-80
2024/01/11 05:46:34;;;;;;;50.00;33.90;;;-4.40;99.90;;;;;;6223256;23;20390;-80
2024/01/11 05:49:19;;;;;;;48.60;33.67;;;-4.70;99.90;;;;;;6222046;23;20437;-78
2024/01/11 05:52:06;;;;;;;54.40;34.17;;;-4.50;99.90;;;;;;6220657;23;20427;-80
2024/01/11 05:54:44;;;;;;;51.27;34.53;;;-4.40;99.90;;;;;;6220736;23;20402;-78
2024/01/11 05:57:19;;;;;;;54.40;34.53;;;-4.50;99.90;;;;;;6231343;23;20475;-77
2024/01/11 05:59:51;;;;;;;58.60;39.10;;;-4.50;99.90;;;;;;6234174;23;20370;-77
2024/01/11 06:02:35;;;;;;;54.30;33.60;;;-4.40;99.90;;;;;;6225548;23;20437;-78
2024/01/11 06:05:15;;;;;;;51.47;34.37;;;-4.50;99.90;;;;;;6226281;23;20425;-78
2024/01/11 06:10:55;;;;;;;52.57;33.30;;;-4.50;99.90;;;;;;6221400;23;20489;-77
2024/01/11 06:13:41;;;;;;;53.03;33.97;;;-4.60;99.90;;;;;;6221740;23;20440;-80
2024/01/11 06:16:20;;;;;;;52.47;34.47;;;-4.50;99.90;;;;;;6216508;23;20484;-79
2024/01/11 06:19:19;;;;;;;50.43;33.73;;;-4.80;99.90;;;;;;6216506;23;20440;-77
2024/01/11 06:25:21;;;;;;;52.07;33.50;;;-4.50;99.90;;;;;;6152248;23;20431;-78
2024/01/11 06:28:08;;;;;;;48.57;33.93;;;-4.80;99.90;;;;;;6218280;23;20402;-78
2024/01/11 06:30:56;;;;;;;52.17;34.17;;;-4.60;99.90;;;;;;6217744;23;20411;-78
2024/01/11 06:34:09;;;;;;;49.43;34.73;;;-4.60;99.90;;;;;;6220645;23;20446;-77
2024/01/11 06:36:58;;;;;;;57.40;35.13;;;-4.50;99.90;;;;;;6219073;23;20419;-78
2024/01/11 06:39:42;;;;;;;49.97;34.00;;;-4.90;99.90;;;;;;6220965;23;20486;-79
2024/01/11 06:42:34;;;;;;;52.40;33.13;;;-4.60;99.90;;;;;;6218503;23;20429;-80
2024/01/11 06:45:53;;;;;;;;;;;;;;;;;;;;;
2024/01/11 06:48:36;;;;;;;53.73;34.90;;;-4.50;99.90;;;;;;6213380;23;20178;-77
2024/01/11 06:51:15;;;;;;;51.23;32.40;;;-4.60;99.90;;;;;;6215158;23;20419;-76
2024/01/11 06:54:32;;;;;;;;;;;;;;;;;;;;;
2024/01/11 06:57:06;;;;;;;55.10;36.60;;;-3.70;99.90;;;;;;6217250;23;20394;-79
2024/01/11 07:03:10;;;;;;;57.90;37.50;;;-3.40;99.90;;;;;;6171196;23;20529;-77
2024/01/11 07:09:18;;;;;;;55.07;36.10;;;-4.00;99.90;;;;;;6211266;23;20439;-78
2024/01/11 07:15:18;;;;;;;55.40;35.20;;;-4.10;99.90;;;;;;6213220;23;20391;-77
2024/01/11 07:17:55;;;;;;;50.57;35.10;;;-4.20;99.90;;;;;;6214876;23;20416;-77
2024/01/11 07:20:30;;;;;;;58.23;37.87;;;-4.20;99.90;;;;;;6220103;23;20446;-79
2024/01/11 07:23:04;;;;;;;53.30;34.53;;;-4.30;99.90;;;;;;6224264;23;20471;-80
2024/01/11 07:25:50;;;;;;;56.17;34.23;;;-4.30;99.90;;;;;;6218314;23;20372;-79
2024/01/11 07:28:27;;;;;;;54.90;34.43;;;-4.10;99.90;;;;;;6216059;23;20458;-79
2024/01/11 07:34:05;;;;;;;56.80;36.10;;;-4.20;99.90;;;;;;6180750;23;20407;-76
2024/01/11 07:36:57;;;;;;;51.87;33.73;;;-4.20;99.90;;;;;;6214577;23;20490;-78
2024/01/11 07:39:40;;;;;;;51.30;34.87;;;-4.30;99.90;;;;;;6215822;23;20478;-80
2024/01/11 07:48:51;;;;;;;53.90;34.70;;;-4.40;99.90;;;;;;6215402;23;20437;-80
2024/01/11 07:51:52;;;;;;;51.30;34.43;;;-4.30;99.90;;;;;;6220458;23;20456;-79
2024/01/11 07:54:49;;;;;;;54.50;34.70;;;-4.20;99.90;;;;;;6217221;23;20548;-79
2024/01/11 08:00:34;;;;;;;53.60;34.93;;;-4.40;99.90;;;;;;6211007;23;20398;-76
2024/01/11 08:03:52;;;;;;;;;;;;;;;;;;;;;
2024/01/11 08:06:59;;;;;;;;;;;;;;;;;;;;;
2024/01/11 08:10:10;;;;;;;49.80;35.20;;;-4.00;99.90;;;;;;6220335;23;20401;-79
2024/01/11 08:13:15;;;;;;;54.70;35.73;;;-4.00;99.90;;;;;;6178392;23;20439;-76
2024/01/11 08:19:01;;;;;;;60.07;35.00;;;-3.90;99.90;;;;;;6236013;23;20465;-78
2024/01/11 08:21:56;;;;;;;50.17;34.77;;;-3.90;99.90;;;;;;6236314;23;20432;-79
2024/01/11 08:28:07;;;;;;;;;;;;;;;;;;;;;
2024/01/11 08:34:39;;;;;;;52.87;34.77;;;-3.30;99.90;;;;;;6197145;23;20387;-78
2024/01/11 08:37:49;;;;;;;58.77;35.00;;;-3.30;99.90;;;;;;6220489;23;20417;-78
2024/01/11 08:47:50;;;;;;;50.77;35.80;;;-3.20;99.90;;;;;;6130507;23;20456;-78
2024/01/11 08:57:31;;;;;;;50.20;36.03;;;-2.30;99.90;;;;;;6107549;23;20398;-80
2024/01/11 09:00:22;;;;;;;58.07;36.90;;;-2.20;99.90;;;;;;6217308;23;20487;-80
2024/01/11 09:03:15;;;;;;;54.27;35.30;;;-2.30;99.90;;;;;;6218585;23;20450;-77
2024/01/11 09:05:48;;;;;;;55.03;34.60;;;-2.50;99.90;;;;;;6223366;23;20464;-80
2024/01/11 09:08:38;;;;;;;52.90;35.20;;;-2.40;99.90;;;;;;6223920;23;20383;-79
2024/01/11 09:11:15;;;;;;;51.80;35.87;;;-2.10;99.90;;;;;;6223500;23;20414;-80
2024/01/11 09:17:23;;;;;;;;;;;;;;;;;;;;;
2024/01/11 09:23:17;;;;;;;50.53;34.60;;;-0.70;99.90;;;;;;6205401;23;20790;-78
2024/01/11 09:33:12;;;;;;;;;;;;;;;;;;;;;
2024/01/11 09:38:42;;;;;;;48.57;34.80;;;-0.40;99.90;;;;;;6200145;23;20894;-79
2024/01/11 09:45:13;;;;;;;;;;;;;;;;;;;;;
2024/01/11 09:54:54;;;;;;;;;;;;;;;;;;;;;
2024/01/11 09:58:11;;;;;;;58.53;36.77;;;0.20;99.90;;;;;;6207710;23;20416;-80
2024/01/11 10:01:16;;;;;;;49.60;36.30;;;-0.40;99.90;;;;;;6166956;23;20805;-77
2024/01/11 10:11:12;;;;;;;45.57;35.50;;;1.20;99.90;;;;;;6159895;23;20394;-78
2024/01/11 10:14:05;;;;;;;51.27;33.97;;;1.20;99.90;;;;;;6220550;23;20518;-79
2024/01/11 10:17:02;;;;;;;56.27;35.73;;;1.80;99.90;;;;;;6223050;23;20441;-79
2024/01/11 10:20:22;;;;;;;45.60;33.50;;;1.70;99.90;;;;;;6221385;23;20440;-78
2024/01/11 10:23:13;;;;;;;;;;;;;;;;;;;;;
2024/01/11 10:26:11;;;;;;;49.47;37.27;;;0.30;99.90;;;;;;6221515;23;20421;-80
2024/01/11 10:29:23;;;;;;;47.60;33.87;;;1.20;99.90;;;;;;6219491;23;20415;-78
2024/01/11 10:32:18;;;;;;;;;;;;;;;;;;;;;
2024/01/11 10:38:28;;;;;;;44.63;33.47;;;2.50;99.90;;;;;;6102130;23;20414;-78
2024/01/11 10:41:44;;;;;;;48.27;34.77;;;2.60;99.90;;;;;;6103012;23;20412;-80
2024/01/11 10:47:39;;;;;;;42.23;34.43;;;2.90;99.90;;;;;;6184514;23;20400;-80
2024/01/11 10:50:19;;;;;;;46.00;34.57;;;3.20;99.90;;;;;;6221475;23;20432;-81
2024/01/11 10:59:59;;;;;;;44.27;34.10;;;3.50;99.90;;;;;;6150362;23;20447;-79
2024/01/11 11:09:43;;;;;;;44.43;33.70;;;3.50;99.90;;;;;;6147575;23;20406;-82
2024/01/11 12:07:38;;;;;;;48.10;35.53;;;2.90;99.90;;;;;;5983051;24;20414;-80
2024/01/11 12:10:15;;;;;;;45.63;33.33;;;2.90;99.90;;;;;;6075370;23;20412;-79
2024/01/11 12:13:41;;;;;;;49.27;35.10;;;2.80;99.90;;;;;;6158630;23;20459;-79
2024/01/11 12:23:08;;;;;;;49.83;36.37;;;2.40;99.90;;;;;;6043404;23;20439;-81
2024/01/11 12:29:25;;;;;;;;;;;;;;;;;;;;;
2024/01/11 12:32:29;;;;;;;45.97;35.23;;;2.40;99.90;;;;;;6130027;23;20427;-81
2024/01/11 12:35:22;;;;;;;46.57;36.00;;;2.50;99.90;;;;;;6189218;23;20501;-80
2024/01/11 12:45:54;;;;;;;;;;;;;;;;;;;;;
2024/01/11 12:52:32;;;;;;;;;;;;;;;;;;;;;
2024/01/11 12:55:47;;;;;;;46.03;32.97;;;2.20;99.90;;;;;;6043017;23;20419;-79
2024/01/11 12:59:05;;;;;;;;;;;;;;;;;;;;;
2024/01/11 13:02:05;;;;;;;48.57;35.03;;;2.20;99.90;;;;;;6084046;23;20393;-78
2024/01/11 13:12:12;;;;;;;47.67;32.67;;;2.20;99.90;;;;;;6065736;23;20484;-79
2024/01/11 13:18:39;;;;;;;;;;;;;;;;;;;;;
2024/01/11 13:21:21;;;;;;;48.47;34.90;;;2.00;99.90;;;;;;6049112;23;20480;-80
2024/01/11 13:23:49;;;;;;;50.70;37.30;;;2.20;99.90;;;;;;6157057;23;20473;-78
2024/01/11 13:26:23;;;;;;;46.30;34.90;;;2.00;99.90;;;;;;6228934;23;20442;-77
2024/01/11 13:28:54;;;;;;;48.97;35.47;;;2.10;99.90;;;;;;6228565;23;20437;-78
2024/01/11 13:31:24;;;;;;;56.17;36.50;;;2.20;99.90;;;;;;6227389;23;20432;-79
2024/01/11 13:33:56;;;;;;;57.77;36.10;;;2.00;99.90;;;;;;6228269;23;20488;-78
2024/01/11 13:36:25;;;;;;;54.10;36.00;;;1.90;99.90;;;;;;6227283;23;20443;-80
2024/01/11 13:38:54;;;;;;;43.30;33.23;;;2.20;99.90;;;;;;6228597;23;20422;-78
2024/01/11 13:41:25;;;;;;;47.00;34.13;;;1.90;99.90;;;;;;6227381;23;20509;-79
2024/01/11 13:43:54;;;;;;;51.90;34.90;;;2.00;99.90;;;;;;6226904;23;20412;-79
2024/01/11 13:46:24;;;;;;;51.00;35.40;;;1.90;99.90;;;;;;6238012;23;20463;-79
2024/01/11 13:48:54;;;;;;;48.20;35.53;;;1.70;99.90;;;;;;6239222;23;20402;-78
2024/01/11 13:51:22;;;;;;;42.77;33.60;;;1.90;99.90;;;;;;6237709;23;20416;-78
2024/01/11 13:53:50;;;;;;;46.73;34.00;;;1.60;99.90;;;;;;6240232;23;20419;-76
2024/01/11 13:56:17;;;;;;;45.93;35.20;;;1.70;99.90;;;;;;6238320;23;20410;-77
2024/01/11 13:58:46;;;;;;;47.63;34.43;;;1.70;99.90;;;;;;6238067;23;20487;-79
2024/01/11 14:01:17;;;;;;;43.20;33.83;;;2.00;99.90;;;;;;6239049;23;20431;-78
2024/01/11 14:03:46;;;;;;;49.27;36.30;;;1.90;99.90;;;;;;6239752;23;20410;-79
2024/01/11 14:06:16;;;;;;;49.90;34.87;;;1.90;99.90;;;;;;6236697;23;20392;-78
2024/01/11 14:08:45;;;;;;;47.73;36.00;;;1.90;99.90;;;;;;6229888;23;20411;-81
2024/01/11 14:11:15;;;;;;;48.17;34.77;;;1.80;99.90;;;;;;6227586;23;20413;-77
2024/01/11 14:13:49;;;;;;;65.23;36.27;;;1.90;99.90;;;;;;6227016;23;20438;-78
2024/01/11 14:19:28;;;;;;;46.97;35.33;;;1.80;99.90;;;;;;6136061;23;20409;-78
2024/01/11 14:21:57;;;;;;;50.90;35.90;;;1.90;99.90;;;;;;6225830;23;20427;-78
2024/01/11 14:24:25;;;;;;;55.47;36.07;;;1.90;99.90;;;;;;6224307;23;20443;-79
2024/01/11 14:26:54;;;;;;;50.63;36.90;;;1.90;99.90;;;;;;6225556;23;20396;-78
2024/01/11 14:29:23;;;;;;;50.70;36.97;;;2.10;99.90;;;;;;6225896;23;20407;-79
2024/01/11 14:31:58;;;;;;;51.33;37.17;;;1.90;99.90;;;;;;6226269;23;20437;-78
2024/01/11 14:34:30;;;;;;;52.93;38.40;;;1.60;99.90;;;;;;6222513;23;20411;-79
2024/01/11 14:36:59;;;;;;;51.57;37.80;;;1.60;99.90;;;;;;6221878;23;20435;-78
2024/01/11 14:39:29;;;;;;;52.83;37.17;;;1.60;99.90;;;;;;6220059;23;20411;-78
2024/01/11 14:42:00;;;;;;;54.43;37.70;;;1.60;99.90;;;;;;6220541;23;20435;-78
2024/01/11 14:44:30;;;;;;;51.40;39.03;;;1.70;99.90;;;;;;6219847;23;20434;-81
2024/01/11 14:46:58;;;;;;;55.03;38.73;;;1.50;99.90;;;;;;6219114;23;20429;-79
2024/01/11 14:49:29;;;;;;;50.00;36.50;;;1.40;99.90;;;;;;6218484;23;20414;-77
2024/01/11 14:51:57;;;;;;;57.43;38.43;;;1.40;99.90;;;;;;6218583;23;20424;-79
2024/01/11 14:54:30;;;;;;;58.93;38.30;;;1.30;99.90;;;;;;6218765;23;20426;-77
2024/01/11 14:56:59;;;;;;;58.00;37.30;;;1.20;99.90;;;;;;6219170;23;20440;-77
2024/01/11 14:59:37;;;;;;;51.17;36.10;;;1.10;99.90;;;;;;6219594;23;20939;-79
2024/01/11 15:02:06;;;;;;;51.60;36.13;;;1.00;99.90;;;;;;6220389;23;20943;-80
2024/01/11 15:04:40;;;;;;;55.20;37.80;;;1.30;99.90;;;;;;6217229;23;20732;-76
2024/01/11 15:07:37;;;;;;;48.93;35.30;;;1.30;99.90;;;;;;6214949;23;20807;-79
2024/01/11 15:10:06;;;;;;;55.77;37.03;;;1.30;99.90;;;;;;6217718;23;20896;-79
2024/01/11 15:12:48;;;;;;;55.63;37.33;;;1.20;99.90;;;;;;6217998;23;20427;-79
2024/01/11 15:15:19;;;;;;;63.57;36.00;;;1.10;99.90;;;;;;6221294;23;20390;-77
2024/01/11 15:17:53;;;;;;;49.90;35.50;;;1.30;99.90;;;;;;6221519;23;20965;-79
2024/01/11 15:20:28;;;;;;;49.93;36.03;;;1.10;99.90;;;;;;6219143;23;20513;-77
2024/01/11 15:23:03;;;;;;;52.37;38.03;;;0.90;99.90;;;;;;6217438;23;20751;-78
2024/01/11 15:25:34;;;;;;;58.20;39.43;;;1.10;99.90;;;;;;6215491;23;20995;-77
2024/01/11 15:29:06;;;;;;;54.30;37.07;;;0.90;99.90;;;;;;6214262;23;20473;-80
2024/01/11 15:32:09;;;;;;;53.77;36.87;;;0.60;99.90;;;;;;6208239;23;20457;-81
2024/01/11 15:34:46;;;;;;;52.43;37.03;;;0.80;99.90;;;;;;6216480;23;20409;-81
2024/01/11 15:37:36;;;;;;;52.03;36.80;;;0.80;99.90;;;;;;6216813;23;20922;-81
2024/01/11 15:40:17;;;;;;;48.33;36.63;;;0.80;99.90;;;;;;6216135;23;20371;-80
2024/01/11 15:42:49;;;;;;;49.07;38.17;;;0.70;99.90;;;;;;6216811;23;21016;-80
2024/01/11 15:45:27;;;;;;;52.70;37.47;;;0.60;99.90;;;;;;6217693;23;20415;-79
2024/01/11 15:51:28;;;;;;;49.43;37.40;;;0.60;99.90;;;;;;6132280;23;20423;-79
2024/01/11 15:53:58;;;;;;;52.33;38.43;;;0.30;99.90;;;;;;6215848;23;20411;-79
2024/01/11 15:56:29;;;;;;;52.70;37.30;;;0.60;99.90;;;;;;6220773;23;20430;-78
2024/01/11 16:02:41;;;;;;;46.97;37.17;;;0.80;99.90;;;;;;6221019;23;20443;-80
2024/01/11 16:05:14;;;;;;;50.90;37.60;;;0.60;99.90;;;;;;6171657;23;20524;-77
2024/01/11 16:07:46;;;;;;;49.70;36.80;;;0.70;99.90;;;;;;6223291;23;20417;-79
2024/01/11 16:10:27;;;;;;;50.30;37.43;;;0.40;99.90;;;;;;6220831;23;20435;-80
2024/01/11 16:13:06;;;;;;;51.30;36.30;;;0.60;99.90;;;;;;6219939;23;20504;-81
2024/01/11 16:15:56;;;;;;;55.23;38.30;;;0.50;99.90;;;;;;6223138;23;20493;-80
2024/01/11 16:18:31;;;;;;;57.87;38.57;;;0.50;99.90;;;;;;6223026;23;20411;-79
2024/01/11 16:21:05;;;;;;;53.53;39.60;;;0.30;99.90;;;;;;6222843;23;20437;-80
2024/01/11 16:24:10;;;;;;;;;;;;;;;;;;;;;
2024/01/11 16:27:08;;;;;;;52.63;37.20;;;0.30;99.90;;;;;;6221159;23;20387;-82
2024/01/11 16:29:57;;;;;;;50.83;37.87;;;0.30;99.90;;;;;;6219100;23;20407;-79
2024/01/11 16:32:28;;;;;;;50.17;36.77;;;0.30;99.90;;;;;;6220765;23;20454;-79
2024/01/11 16:34:59;;;;;;;50.67;38.10;;;0.20;99.90;;;;;;6221728;23;20402;-79
2024/01/11 16:37:27;;;;;;;49.53;36.47;;;0.20;99.90;;;;;;6219060;23;20407;-78
2024/01/11 16:40:44;;;;;;;48.93;37.77;;;0.10;99.90;;;;;;6220722;23;20426;-80
2024/01/11 16:43:37;;;;;;;49.07;35.77;;;0.10;99.90;;;;;;6176429;23;20431;-78
2024/01/11 16:46:27;;;;;;;48.57;36.90;;;0.10;99.90;;;;;;6191115;23;20410;-83
2024/01/11 16:49:22;;;;;;;53.97;37.70;;;0.10;99.90;;;;;;6191268;23;21148;-80
2024/01/11 16:52:16;;;;;;;50.23;38.00;;;0.10;99.90;;;;;;6190603;23;20454;-79
2024/01/11 16:54:58;;;;;;;46.23;35.37;;;0.20;99.90;;;;;;6192360;23;20746;-78
2024/01/11 16:57:39;;;;;;;47.23;36.40;;;0.00;99.90;;;;;;6195203;23;20498;-80
2024/01/11 17:00:21;;;;;;;43.83;35.07;;;0.00;99.90;;;;;;6192221;23;20418;-81
2024/01/11 17:03:04;;;;;;;52.17;36.43;;;0.10;99.90;;;;;;6197258;23;20783;-78
2024/01/11 17:05:34;;;;;;;53.20;36.80;;;-0.40;99.90;;;;;;6198988;23;20421;-79
2024/01/11 17:08:28;;;;;;;52.20;37.23;;;-0.20;99.90;;;;;;6196288;23;20411;-80
2024/01/11 17:11:02;;;;;;;49.47;35.50;;;-0.20;99.90;;;;;;6197434;23;20407;-79
2024/01/11 17:13:37;;;;;;;49.10;35.80;;;-0.30;99.90;;;;;;6195821;23;20859;-79
2024/01/11 17:16:59;;;;;;;52.70;36.87;;;-0.20;99.90;;;;;;6190530;23;20411;-79
2024/01/11 17:19:50;;;;;;;;;;;;;;;;;;;;;
2024/01/11 17:22:25;;;;;;;53.80;35.27;;;-0.20;99.90;;;;;;6192955;23;20431;-81
2024/01/11 17:28:10;;;;;;;50.77;35.93;;;-0.30;99.90;;;;;;6103239;23;20409;-83
2024/01/11 17:31:06;;;;;;;48.40;34.30;;;-0.30;99.90;;;;;;6106097;23;20417;-78
2024/01/11 17:33:40;;;;;;;53.27;34.80;;;-0.60;99.90;;;;;;6196698;23;20460;-81
2024/01/11 17:36:13;;;;;;;49.30;34.80;;;-0.30;99.90;;;;;;6191944;23;20399;-79
2024/01/11 17:38:46;;;;;;;52.20;36.73;;;-0.40;99.90;;;;;;6187504;23;20438;-80
2024/01/11 17:41:39;;;;;;;51.87;36.13;;;-0.40;99.90;;;;;;6190779;23;20443;-79
2024/01/11 17:44:40;;;;;;;50.40;35.97;;;-0.60;99.90;;;;;;6188573;23;20698;-80
2024/01/11 17:47:15;;;;;;;50.63;34.70;;;-0.30;99.90;;;;;;6188955;23;20411;-77
2024/01/11 17:49:50;;;;;;;46.27;33.93;;;-0.40;99.90;;;;;;6189506;23;20411;-80
2024/01/11 17:52:28;;;;;;;45.63;34.70;;;-0.40;99.90;;;;;;6189439;23;20523;-79
2024/01/11 17:55:25;;;;;;;53.37;36.93;;;-0.40;99.90;;;;;;6188025;23;20419;-79
2024/01/11 18:22:21;;;;;;;55.43;38.50;;;-0.70;99.90;;;;;;5938809;23;20472;-80
2024/01/11 18:28:37;;;;;;;71.80;47.43;;;-0.70;99.90;;;;;;5889996;24;20417;-78
2024/01/11 18:31:14;;;;;;;57.63;41.00;;;-0.70;99.90;;;;;;5939798;24;20431;-79
2024/01/11 18:48:12;;;;;;;53.63;35.07;;;-1.00;99.90;;;;;;5803069;24;20492;-78
2024/01/11 18:51:04;;;;;;;49.13;36.27;;;-0.90;99.90;;;;;;5898554;24;20467;-78
2024/01/11 18:53:38;;;;;;;49.93;36.47;;;-0.70;99.90;;;;;;5989214;24;20419;-77
2024/01/11 18:56:16;;;;;;;50.80;35.93;;;-0.90;99.90;;;;;;6075038;23;20411;-79
2024/01/11 18:58:44;;;;;;;57.63;38.33;;;-1.00;99.90;;;;;;6079002;23;20509;-78
2024/01/11 19:01:36;;;;;;;;;;;;;;;;;;;;;
2024/01/11 19:04:10;;;;;;;54.20;38.20;;;-0.80;99.90;;;;;;6164603;23;20385;-78
2024/01/11 19:23:15;;;;;;;57.77;38.40;;;-1.10;99.90;;;;;;5897064;24;20468;-80
2024/01/11 19:26:31;;;;;;;53.10;37.20;;;-1.10;99.90;;;;;;5901851;24;20639;-79
2024/01/11 19:29:34;;;;;;;51.53;37.83;;;-1.20;99.90;;;;;;5867109;24;20420;-80
2024/01/11 19:43:35;;;;;;;;;;;;;;;;;;;;;
2024/01/11 19:47:00;;;;;;;52.33;36.73;;;-1.30;99.90;;;;;;6107251;23;20495;-80
2024/01/11 19:56:18;;;;;;;50.50;36.90;;;-1.50;99.90;;;;;;6128820;23;20393;-80
2024/01/11 20:09:08;;;;;;;47.73;35.50;;;-1.50;99.90;;;;;;5989146;23;20491;-79
2024/01/11 20:12:21;;;;;;;56.97;37.80;;;-1.50;99.90;;;;;;6073739;23;20493;-79